Flight Track Log - Related Links

Times and Time Zones

All times are in EDT time to prevent confusion due to time zone crossing. See the N444WR flight status page for this flight to view local times or setup timezone preferences in your user account.

Time Position Orientation Groundspeed Altitude Reporting Facility
EDT Latitude Longitude Course Direction KTS MPH feet Rate Location/Type
Thu 11:30:00 AM 36.2056 -88.0267 228° Southwest 159 183 4,900  Level Memphis Center
Thu 11:31:00 AM 36.1831 -88.0581 228° Southwest 135 155 5,600 700 Climbing Memphis Center
Thu 11:32:00 AM 36.1628 -88.0869 229° Southwest 128 147 6,300 650 Climbing Memphis Center
Thu 11:33:00 AM 36.1403 -88.1183 228° Southwest 128 147 6,900 500 Climbing Memphis Center
Thu 11:34:00 AM 36.1181 -88.1550 233° Southwest 128 147 7,300 500 Climbing Memphis Center
Thu 11:35:00 AM 36.0936 -88.1892 228° Southwest 133 153 7,900 300 Climbing Memphis Center
Thu 11:36:00 AM 36.0672 -88.2258 228° Southwest 133 153 7,900  Level Memphis Center
Thu 11:37:00 AM 36.0367 -88.2675 228° Southwest 153 176 7,900  Level Memphis Center
Thu 11:38:00 AM 36.0081 -88.3094 230° Southwest 158 182 7,900  Level Memphis Center
Thu 11:39:00 AM 35.9756 -88.3564 229° Southwest 163 188 7,900  Level Memphis Center
Thu 11:40:00 AM 35.9450 -88.3981 228° Southwest 168 193 7,900  Level Memphis Center
Thu 11:41:00 AM 35.9164 -88.4397 230° Southwest 168 193 7,900  Level Memphis Center
Thu 11:42:00 AM 35.8836 -88.4789 224° Southwest 168 193 7,900  Level Memphis Center
Thu 11:43:00 AM 35.8550 -88.5181 228° Southwest 168 193 7,900  Level Memphis Center
Thu 11:44:00 AM 35.8264 -88.5572 228° Southwest 168 193 7,900  Level Memphis Center
Thu 11:45:00 AM 35.7958 -88.6014 230° Southwest 168 193 7,900  Level Memphis Center
Thu 11:46:00 AM 35.7672 -88.6403 228° Southwest 163 188 7,900  Level Memphis Center
Thu 11:47:00 AM 35.7364 -88.6792 226° Southwest 163 188 7,900  Level Memphis Center
Thu 11:48:00 AM 35.7078 -88.7183 228° Southwest 163 188 7,900  Level Memphis Center
Thu 11:49:00 AM 35.6769 -88.7597 227° Southwest 163 188 7,900  Level Memphis Center
Thu 11:50:00 AM 35.6483 -88.8011 230° Southwest 163 188 7,900  Level Memphis Center
Thu 11:51:00 AM 35.6217 -88.8375 228° Southwest 158 182 7,900  Level Memphis Center
Thu 11:52:00 AM 35.5908 -88.8814 229° Southwest 164 189 7,900  Level Memphis Center
Thu 11:53:00 AM 35.5581 -88.9253 227° Southwest 164 189 7,900  Level Memphis Center
Thu 11:54:00 AM 35.5272 -88.9667 228° Southwest 158 182 7,900 -150 Level Memphis Center
Thu 11:55:00 AM 35.4986 -89.0081 230° Southwest 158 182 7,600 -500 Descending Memphis Center
Thu 11:56:00 AM 35.4656 -89.0519 227° Southwest 166 191 6,900 -700 Descending Memphis Center
Thu 11:57:00 AM 35.4389 -89.1008 236° Southwest 171 197 6,200 -750 Descending Memphis Center
Thu 11:58:00 AM 35.4103 -89.1444 231° Southwest 171 197 5,400 -900 Descending Memphis Center
Thu 11:59:00 AM 35.3836 -89.1906 235° Southwest 176 203 4,400 -600 Descending Memphis Center
Thu 12:00:00 PM 35.3569 -89.2419 238° Southwest 176 203 4,200 -200 Descending Memphis Center
Thu 12:01:00 PM 35.3303 -89.2933 238° Southwest 176 203 4,000 -100 Descending Memphis Center
Thu 12:02:00 PM 35.3056 -89.3444 239° Southwest 176 203 4,000  Level Memphis Center
Thu 12:03:00 PM 35.2789 -89.3956 237° Southwest 176 203 4,000  Level Memphis Center
Thu 12:04:00 PM 35.2686 -89.4161 239° Southwest 176 203 4,000  Level Memphis Center
Thu 12:06:00 PM 35.2686 -89.4161 321° Northwest 176 203 4,000  Level Memphis Center
Thu 12:08:00 PM 35.2686 -89.4161 321° Northwest 176 203 4,000  Level Memphis Center
Thu 12:10:00 PM 35.2686 -89.4161 321° Northwest 176 203 4,000  Level Memphis Center

Login

Don't have an account? Register now (free) for customized features, flight alerts, and more!